sensor_id;sensor_type;location;lat;lon;timestamp;temperature;humidity
57390;DHT22;43217;52.694;6.214;2023-07-29T00:01:34;18.20;99.90
57390;DHT22;43217;52.694;6.214;2023-07-29T00:04:00;18.10;99.90
57390;DHT22;43217;52.694;6.214;2023-07-29T00:06:26;18.10;99.90
57390;DHT22;43217;52.694;6.214;2023-07-29T00:08:52;18.10;99.90
57390;DHT22;43217;52.694;6.214;2023-07-29T00:11:18;18.10;99.90
57390;DHT22;43217;52.694;6.214;2023-07-29T00:13:44;18.10;99.90
57390;DHT22;43217;52.694;6.214;2023-07-29T00:16:09;18.10;99.90
57390;DHT22;43217;52.694;6.214;2023-07-29T00:18:35;18.00;99.90
57390;DHT22;43217;52.694;6.214;2023-07-29T00:21:01;18.00;99.90
57390;DHT22;43217;52.694;6.214;2023-07-29T00:23:27;18.00;99.90
57390;DHT22;43217;52.694;6.214;2023-07-29T00:25:52;18.00;99.90
57390;DHT22;43217;52.694;6.214;2023-07-29T00:28:18;18.00;99.90
57390;DHT22;43217;52.694;6.214;2023-07-29T00:30:44;17.90;99.90
57390;DHT22;43217;52.694;6.214;2023-07-29T00:33:10;17.90;99.90
57390;DHT22;43217;52.694;6.214;2023-07-29T00:35:38;17.90;99.90
57390;DHT22;43217;52.694;6.214;2023-07-29T00:38:03;17.90;99.90
57390;DHT22;43217;52.694;6.214;2023-07-29T00:40:29;17.90;99.90
57390;DHT22;43217;52.694;6.214;2023-07-29T00:42:56;17.80;99.90
57390;DHT22;43217;52.694;6.214;2023-07-29T00:45:24;17.80;99.90
57390;DHT22;43217;52.694;6.214;2023-07-29T00:47:50;17.80;99.90
57390;DHT22;43217;52.694;6.214;2023-07-29T00:50:16;17.80;99.90
57390;DHT22;43217;52.694;6.214;2023-07-29T00:52:42;17.80;99.90
57390;DHT22;43217;52.694;6.214;2023-07-29T00:55:09;17.80;99.90
57390;DHT22;43217;52.694;6.214;2023-07-29T00:57:35;17.70;99.90
57390;DHT22;43217;52.694;6.214;2023-07-29T01:00:01;17.70;99.90
57390;DHT22;43217;52.694;6.214;2023-07-29T01:02:28;17.70;99.90
57390;DHT22;43217;52.694;6.214;2023-07-29T01:04:56;17.60;99.90
57390;DHT22;43217;52.694;6.214;2023-07-29T01:12:54;17.60;99.90
57390;DHT22;43217;52.694;6.214;2023-07-29T01:15:24;17.60;99.90
57390;DHT22;43217;52.694;6.214;2023-07-29T01:18:10;17.60;99.90
57390;DHT22;43217;52.694;6.214;2023-07-29T01:20:38;17.50;99.90
57390;DHT22;43217;52.694;6.214;2023-07-29T01:23:05;17.40;99.90
57390;DHT22;43217;52.694;6.214;2023-07-29T01:25:31;17.40;99.90
57390;DHT22;43217;52.694;6.214;2023-07-29T01:27:57;17.40;99.90
57390;DHT22;43217;52.694;6.214;2023-07-29T01:30:39;17.40;99.90
57390;DHT22;43217;52.694;6.214;2023-07-29T01:33:16;17.40;99.90
57390;DHT22;43217;52.694;6.214;2023-07-29T01:35:52;17.40;99.90
57390;DHT22;43217;52.694;6.214;2023-07-29T01:38:24;17.40;99.90
57390;DHT22;43217;52.694;6.214;2023-07-29T01:40:54;17.50;99.90
57390;DHT22;43217;52.694;6.214;2023-07-29T01:43:20;17.50;99.90
57390;DHT22;43217;52.694;6.214;2023-07-29T01:45:49;17.50;99.90
57390;DHT22;43217;52.694;6.214;2023-07-29T01:48:15;17.50;99.90
57390;DHT22;43217;52.694;6.214;2023-07-29T01:50:40;17.60;99.90
57390;DHT22;43217;52.694;6.214;2023-07-29T01:53:06;17.60;99.90
57390;DHT22;43217;52.694;6.214;2023-07-29T01:55:32;17.60;99.90
57390;DHT22;43217;52.694;6.214;2023-07-29T01:57:57;17.60;99.90
57390;DHT22;43217;52.694;6.214;2023-07-29T02:00:23;17.50;99.90
57390;DHT22;43217;52.694;6.214;2023-07-29T02:02:49;17.50;99.90
57390;DHT22;43217;52.694;6.214;2023-07-29T02:05:15;17.50;99.90
57390;DHT22;43217;52.694;6.214;2023-07-29T02:07:40;17.50;99.90
57390;DHT22;43217;52.694;6.214;2023-07-29T02:10:06;17.50;99.90
57390;DHT22;43217;52.694;6.214;2023-07-29T02:12:33;17.60;99.90
57390;DHT22;43217;52.694;6.214;2023-07-29T02:14:58;17.60;99.90
57390;DHT22;43217;52.694;6.214;2023-07-29T02:17:24;17.60;99.90
57390;DHT22;43217;52.694;6.214;2023-07-29T02:19:52;17.60;99.90
57390;DHT22;43217;52.694;6.214;2023-07-29T02:22:24;17.60;99.90
57390;DHT22;43217;52.694;6.214;2023-07-29T02:24:50;17.60;99.90
57390;DHT22;43217;52.694;6.214;2023-07-29T02:27:16;17.50;99.90
57390;DHT22;43217;52.694;6.214;2023-07-29T02:29:42;17.50;99.90
57390;DHT22;43217;52.694;6.214;2023-07-29T02:32:10;17.50;99.90
57390;DHT22;43217;52.694;6.214;2023-07-29T02:34:36;17.50;99.90
57390;DHT22;43217;52.694;6.214;2023-07-29T02:37:02;17.60;99.90
57390;DHT22;43217;52.694;6.214;2023-07-29T02:39:27;17.50;99.90
57390;DHT22;43217;52.694;6.214;2023-07-29T02:41:53;17.50;99.90
57390;DHT22;43217;52.694;6.214;2023-07-29T02:44:20;17.50;99.90
57390;DHT22;43217;52.694;6.214;2023-07-29T02:46:46;17.40;99.90
57390;DHT22;43217;52.694;6.214;2023-07-29T02:49:12;17.40;99.90
57390;DHT22;43217;52.694;6.214;2023-07-29T02:51:37;17.40;99.90
57390;DHT22;43217;52.694;6.214;2023-07-29T02:54:03;17.30;99.90
57390;DHT22;43217;52.694;6.214;2023-07-29T02:56:28;17.30;99.90
57390;DHT22;43217;52.694;6.214;2023-07-29T02:58:56;17.30;99.90
57390;DHT22;43217;52.694;6.214;2023-07-29T03:01:23;17.30;99.90
57390;DHT22;43217;52.694;6.214;2023-07-29T03:03:50;17.30;99.90
57390;DHT22;43217;52.694;6.214;2023-07-29T03:06:16;17.20;99.90
57390;DHT22;43217;52.694;6.214;2023-07-29T03:08:42;17.20;99.90
57390;DHT22;43217;52.694;6.214;2023-07-29T03:11:13;17.20;99.90
57390;DHT22;43217;52.694;6.214;2023-07-29T03:13:39;17.20;99.90
57390;DHT22;43217;52.694;6.214;2023-07-29T03:16:12;17.20;99.90
57390;DHT22;43217;52.694;6.214;2023-07-29T03:18:42;17.20;99.90
57390;DHT22;43217;52.694;6.214;2023-07-29T03:21:08;17.10;99.90
57390;DHT22;43217;52.694;6.214;2023-07-29T03:23:35;17.10;99.90
57390;DHT22;43217;52.694;6.214;2023-07-29T03:26:02;17.10;99.90
57390;DHT22;43217;52.694;6.214;2023-07-29T03:28:32;17.10;99.90
57390;DHT22;43217;52.694;6.214;2023-07-29T03:30:58;17.10;99.90
57390;DHT22;43217;52.694;6.214;2023-07-29T03:33:25;17.10;99.90
57390;DHT22;43217;52.694;6.214;2023-07-29T03:35:52;17.00;99.90
57390;DHT22;43217;52.694;6.214;2023-07-29T03:38:17;17.00;99.90
57390;DHT22;43217;52.694;6.214;2023-07-29T03:40:43;17.00;99.90
57390;DHT22;43217;52.694;6.214;2023-07-29T03:43:09;17.00;99.90
57390;DHT22;43217;52.694;6.214;2023-07-29T03:45:36;17.00;99.90
57390;DHT22;43217;52.694;6.214;2023-07-29T03:48:02;17.00;99.90
57390;DHT22;43217;52.694;6.214;2023-07-29T03:50:29;17.00;99.90
57390;DHT22;43217;52.694;6.214;2023-07-29T03:52:56;17.10;99.90
57390;DHT22;43217;52.694;6.214;2023-07-29T03:55:22;17.10;99.90
57390;DHT22;43217;52.694;6.214;2023-07-29T03:57:48;17.10;99.90
57390;DHT22;43217;52.694;6.214;2023-07-29T04:00:13;17.10;99.90
57390;DHT22;43217;52.694;6.214;2023-07-29T04:02:39;17.10;99.90
57390;DHT22;43217;52.694;6.214;2023-07-29T04:05:06;17.10;99.90
57390;DHT22;43217;52.694;6.214;2023-07-29T04:07:34;17.10;99.90
57390;DHT22;43217;52.694;6.214;2023-07-29T04:10:00;17.00;99.90
57390;DHT22;43217;52.694;6.214;2023-07-29T04:12:26;17.00;99.90
57390;DHT22;43217;52.694;6.214;2023-07-29T04:14:53;17.00;99.90
57390;DHT22;43217;52.694;6.214;2023-07-29T04:17:18;16.90;99.90
57390;DHT22;43217;52.694;6.214;2023-07-29T04:19:47;16.90;99.90
57390;DHT22;43217;52.694;6.214;2023-07-29T04:22:12;16.90;99.90
57390;DHT22;43217;52.694;6.214;2023-07-29T04:24:38;16.90;99.90
57390;DHT22;43217;52.694;6.214;2023-07-29T04:27:04;16.90;99.90
57390;DHT22;43217;52.694;6.214;2023-07-29T04:29:31;16.80;99.90
57390;DHT22;43217;52.694;6.214;2023-07-29T04:31:57;16.80;99.90
57390;DHT22;43217;52.694;6.214;2023-07-29T04:34:25;16.80;99.90
57390;DHT22;43217;52.694;6.214;2023-07-29T04:36:50;16.80;99.90
57390;DHT22;43217;52.694;6.214;2023-07-29T04:39:16;16.90;99.90
57390;DHT22;43217;52.694;6.214;2023-07-29T04:41:42;16.90;99.90
57390;DHT22;43217;52.694;6.214;2023-07-29T04:44:07;16.90;99.90
57390;DHT22;43217;52.694;6.214;2023-07-29T04:46:33;16.90;99.90
57390;DHT22;43217;52.694;6.214;2023-07-29T04:48:59;16.90;99.90
57390;DHT22;43217;52.694;6.214;2023-07-29T04:51:24;16.90;99.90
57390;DHT22;43217;52.694;6.214;2023-07-29T04:53:50;16.90;99.90
57390;DHT22;43217;52.694;6.214;2023-07-29T04:56:16;16.90;99.90
57390;DHT22;43217;52.694;6.214;2023-07-29T04:58:42;16.90;99.90
57390;DHT22;43217;52.694;6.214;2023-07-29T05:01:07;16.90;99.90
57390;DHT22;43217;52.694;6.214;2023-07-29T05:03:33;17.00;99.90
57390;DHT22;43217;52.694;6.214;2023-07-29T05:05:59;17.00;99.90
57390;DHT22;43217;52.694;6.214;2023-07-29T05:08:28;17.10;99.90
57390;DHT22;43217;52.694;6.214;2023-07-29T05:10:54;17.10;99.90
57390;DHT22;43217;52.694;6.214;2023-07-29T05:13:21;17.20;99.90
57390;DHT22;43217;52.694;6.214;2023-07-29T05:15:47;17.20;99.90
57390;DHT22;43217;52.694;6.214;2023-07-29T05:18:13;17.20;99.90
57390;DHT22;43217;52.694;6.214;2023-07-29T05:20:41;17.20;99.90
57390;DHT22;43217;52.694;6.214;2023-07-29T05:23:07;17.20;99.90
57390;DHT22;43217;52.694;6.214;2023-07-29T05:25:32;17.20;99.90
57390;DHT22;43217;52.694;6.214;2023-07-29T05:28:01;17.20;99.90
57390;DHT22;43217;52.694;6.214;2023-07-29T05:30:26;17.20;99.90
57390;DHT22;43217;52.694;6.214;2023-07-29T05:32:56;17.20;99.90
57390;DHT22;43217;52.694;6.214;2023-07-29T05:35:22;17.20;99.90
57390;DHT22;43217;52.694;6.214;2023-07-29T05:37:48;17.30;99.90
57390;DHT22;43217;52.694;6.214;2023-07-29T05:40:14;17.30;99.90
57390;DHT22;43217;52.694;6.214;2023-07-29T05:42:39;17.40;99.90
57390;DHT22;43217;52.694;6.214;2023-07-29T05:45:06;17.40;99.90
57390;DHT22;43217;52.694;6.214;2023-07-29T05:47:32;17.40;99.90
57390;DHT22;43217;52.694;6.214;2023-07-29T05:49:57;17.50;99.90
57390;DHT22;43217;52.694;6.214;2023-07-29T05:52:23;17.50;99.90
57390;DHT22;43217;52.694;6.214;2023-07-29T05:54:48;17.50;99.90
57390;DHT22;43217;52.694;6.214;2023-07-29T05:57:14;17.50;99.90
57390;DHT22;43217;52.694;6.214;2023-07-29T05:59:40;17.50;99.90
57390;DHT22;43217;52.694;6.214;2023-07-29T06:02:06;17.60;99.90
57390;DHT22;43217;52.694;6.214;2023-07-29T06:04:31;17.60;99.90
57390;DHT22;43217;52.694;6.214;2023-07-29T06:06:57;17.70;99.90
57390;DHT22;43217;52.694;6.214;2023-07-29T06:09:23;17.80;99.90
57390;DHT22;43217;52.694;6.214;2023-07-29T06:11:51;17.90;99.90
57390;DHT22;43217;52.694;6.214;2023-07-29T06:14:16;18.10;99.90
57390;DHT22;43217;52.694;6.214;2023-07-29T06:16:42;18.20;99.90
57390;DHT22;43217;52.694;6.214;2023-07-29T06:19:08;18.20;99.90
57390;DHT22;43217;52.694;6.214;2023-07-29T06:21:34;18.30;99.90
57390;DHT22;43217;52.694;6.214;2023-07-29T06:24:00;18.30;99.90
57390;DHT22;43217;52.694;6.214;2023-07-29T06:26:26;18.40;99.90
57390;DHT22;43217;52.694;6.214;2023-07-29T06:28:52;18.40;99.90
57390;DHT22;43217;52.694;6.214;2023-07-29T06:31:17;18.50;99.90
57390;DHT22;43217;52.694;6.214;2023-07-29T06:33:43;18.50;99.90
57390;DHT22;43217;52.694;6.214;2023-07-29T06:36:08;18.50;99.90
57390;DHT22;43217;52.694;6.214;2023-07-29T06:38:34;18.50;99.90
57390;DHT22;43217;52.694;6.214;2023-07-29T06:41:00;18.50;99.90
57390;DHT22;43217;52.694;6.214;2023-07-29T06:43:26;18.50;99.90
57390;DHT22;43217;52.694;6.214;2023-07-29T06:45:51;18.50;99.90
57390;DHT22;43217;52.694;6.214;2023-07-29T06:48:18;18.50;99.90
57390;DHT22;43217;52.694;6.214;2023-07-29T06:50:45;18.50;99.90
57390;DHT22;43217;52.694;6.214;2023-07-29T06:53:11;18.50;99.90
57390;DHT22;43217;52.694;6.214;2023-07-29T06:55:37;18.50;99.90
57390;DHT22;43217;52.694;6.214;2023-07-29T06:58:03;18.50;99.90
57390;DHT22;43217;52.694;6.214;2023-07-29T07:00:28;18.60;99.90
57390;DHT22;43217;52.694;6.214;2023-07-29T07:02:54;18.80;99.90
57390;DHT22;43217;52.694;6.214;2023-07-29T07:05:20;19.20;99.90
57390;DHT22;43217;52.694;6.214;2023-07-29T07:07:45;19.80;99.90
57390;DHT22;43217;52.694;6.214;2023-07-29T07:10:11;20.50;99.90
57390;DHT22;43217;52.694;6.214;2023-07-29T07:12:37;21.00;99.90
57390;DHT22;43217;52.694;6.214;2023-07-29T07:15:02;21.10;99.90
57390;DHT22;43217;52.694;6.214;2023-07-29T07:17:28;20.90;99.90
57390;DHT22;43217;52.694;6.214;2023-07-29T07:19:54;20.70;99.90
57390;DHT22;43217;52.694;6.214;2023-07-29T07:22:20;20.40;99.90
57390;DHT22;43217;52.694;6.214;2023-07-29T07:24:45;20.20;99.90
57390;DHT22;43217;52.694;6.214;2023-07-29T07:27:11;20.10;99.90
57390;DHT22;43217;52.694;6.214;2023-07-29T07:29:37;20.00;99.90
57390;DHT22;43217;52.694;6.214;2023-07-29T07:32:03;19.90;99.90
57390;DHT22;43217;52.694;6.214;2023-07-29T07:34:28;19.80;99.90
57390;DHT22;43217;52.694;6.214;2023-07-29T07:36:54;19.80;99.90
57390;DHT22;43217;52.694;6.214;2023-07-29T07:39:20;19.80;99.90
57390;DHT22;43217;52.694;6.214;2023-07-29T07:41:45;20.00;99.90
57390;DHT22;43217;52.694;6.214;2023-07-29T07:44:12;20.10;99.90
57390;DHT22;43217;52.694;6.214;2023-07-29T07:46:41;20.60;99.90
57390;DHT22;43217;52.694;6.214;2023-07-29T07:49:07;21.10;99.90
57390;DHT22;43217;52.694;6.214;2023-07-29T07:51:32;21.90;99.90
57390;DHT22;43217;52.694;6.214;2023-07-29T07:53:58;22.30;99.90
57390;DHT22;43217;52.694;6.214;2023-07-29T07:56:24;22.30;99.90
57390;DHT22;43217;52.694;6.214;2023-07-29T07:58:49;22.10;99.90
57390;DHT22;43217;52.694;6.214;2023-07-29T08:01:15;21.90;99.90
57390;DHT22;43217;52.694;6.214;2023-07-29T08:03:41;21.80;99.90
57390;DHT22;43217;52.694;6.214;2023-07-29T08:06:06;21.70;99.90
57390;DHT22;43217;52.694;6.214;2023-07-29T08:08:32;21.70;99.90
57390;DHT22;43217;52.694;6.214;2023-07-29T08:10:58;21.80;99.90
57390;DHT22;43217;52.694;6.214;2023-07-29T08:13:24;21.80;99.90
57390;DHT22;43217;52.694;6.214;2023-07-29T08:15:51;21.80;99.90
57390;DHT22;43217;52.694;6.214;2023-07-29T08:18:18;21.60;99.90
57390;DHT22;43217;52.694;6.214;2023-07-29T08:20:58;21.50;99.90
57390;DHT22;43217;52.694;6.214;2023-07-29T08:23:27;21.40;99.90
57390;DHT22;43217;52.694;6.214;2023-07-29T08:26:01;21.40;99.90
57390;DHT22;43217;52.694;6.214;2023-07-29T08:28:38;21.40;99.90
57390;DHT22;43217;52.694;6.214;2023-07-29T08:31:04;21.50;99.90
57390;DHT22;43217;52.694;6.214;2023-07-29T08:33:34;21.70;99.90
57390;DHT22;43217;52.694;6.214;2023-07-29T08:36:00;21.70;99.90
57390;DHT22;43217;52.694;6.214;2023-07-29T08:38:26;21.60;99.90
57390;DHT22;43217;52.694;6.214;2023-07-29T08:41:11;21.70;99.90
57390;DHT22;43217;52.694;6.214;2023-07-29T08:43:39;22.00;99.90
57390;DHT22;43217;52.694;6.214;2023-07-29T08:46:07;22.30;99.90
57390;DHT22;43217;52.694;6.214;2023-07-29T08:48:41;22.50;99.90
57390;DHT22;43217;52.694;6.214;2023-07-29T08:51:08;22.70;99.90
57390;DHT22;43217;52.694;6.214;2023-07-29T08:53:35;22.50;99.90
57390;DHT22;43217;52.694;6.214;2023-07-29T08:56:01;22.40;99.90
57390;DHT22;43217;52.694;6.214;2023-07-29T08:58:27;22.50;99.90
57390;DHT22;43217;52.694;6.214;2023-07-29T09:00:54;22.50;99.90
57390;DHT22;43217;52.694;6.214;2023-07-29T09:03:20;22.40;99.90
57390;DHT22;43217;52.694;6.214;2023-07-29T09:05:46;22.40;99.90
57390;DHT22;43217;52.694;6.214;2023-07-29T09:08:13;22.50;99.90
57390;DHT22;43217;52.694;6.214;2023-07-29T09:10:38;22.90;99.90
57390;DHT22;43217;52.694;6.214;2023-07-29T09:13:05;23.60;99.90
57390;DHT22;43217;52.694;6.214;2023-07-29T09:15:36;24.20;99.90
57390;DHT22;43217;52.694;6.214;2023-07-29T09:18:10;24.40;99.90
57390;DHT22;43217;52.694;6.214;2023-07-29T09:20:36;24.40;99.90
57390;DHT22;43217;52.694;6.214;2023-07-29T09:23:08;24.30;99.90
57390;DHT22;43217;52.694;6.214;2023-07-29T09:25:34;24.20;99.90
57390;DHT22;43217;52.694;6.214;2023-07-29T09:28:01;24.10;99.90
57390;DHT22;43217;52.694;6.214;2023-07-29T09:30:27;23.90;99.90
57390;DHT22;43217;52.694;6.214;2023-07-29T09:32:57;24.20;99.90
57390;DHT22;43217;52.694;6.214;2023-07-29T09:35:23;24.40;99.90
57390;DHT22;43217;52.694;6.214;2023-07-29T09:37:51;24.60;99.90
57390;DHT22;43217;52.694;6.214;2023-07-29T09:40:17;24.60;99.90
57390;DHT22;43217;52.694;6.214;2023-07-29T09:42:51;24.40;99.90
57390;DHT22;43217;52.694;6.214;2023-07-29T09:45:24;24.30;99.90
57390;DHT22;43217;52.694;6.214;2023-07-29T09:47:51;24.10;99.90
57390;DHT22;43217;52.694;6.214;2023-07-29T09:50:17;24.00;99.90
57390;DHT22;43217;52.694;6.214;2023-07-29T09:52:43;23.90;99.90
57390;DHT22;43217;52.694;6.214;2023-07-29T09:55:13;23.80;99.90
57390;DHT22;43217;52.694;6.214;2023-07-29T09:57:43;23.70;99.90
57390;DHT22;43217;52.694;6.214;2023-07-29T10:00:11;23.50;99.90
57390;DHT22;43217;52.694;6.214;2023-07-29T10:02:43;23.30;99.90
57390;DHT22;43217;52.694;6.214;2023-07-29T10:05:09;23.10;99.90
57390;DHT22;43217;52.694;6.214;2023-07-29T10:07:40;22.90;99.90
57390;DHT22;43217;52.694;6.214;2023-07-29T10:10:07;22.90;99.90
57390;DHT22;43217;52.694;6.214;2023-07-29T10:12:34;23.10;99.90
57390;DHT22;43217;52.694;6.214;2023-07-29T10:15:03;23.20;99.90
57390;DHT22;43217;52.694;6.214;2023-07-29T10:17:30;23.20;99.90
57390;DHT22;43217;52.694;6.214;2023-07-29T10:19:57;23.30;99.90
57390;DHT22;43217;52.694;6.214;2023-07-29T10:22:28;23.30;99.90
57390;DHT22;43217;52.694;6.214;2023-07-29T10:24:56;23.20;99.90
57390;DHT22;43217;52.694;6.214;2023-07-29T10:27:25;23.00;99.90
57390;DHT22;43217;52.694;6.214;2023-07-29T10:29:55;22.80;99.90
57390;DHT22;43217;52.694;6.214;2023-07-29T10:32:24;22.50;99.90
57390;DHT22;43217;52.694;6.214;2023-07-29T10:34:50;22.30;99.90
57390;DHT22;43217;52.694;6.214;2023-07-29T10:37:16;22.20;99.90
57390;DHT22;43217;52.694;6.214;2023-07-29T10:39:53;22.10;99.90
57390;DHT22;43217;52.694;6.214;2023-07-29T10:42:19;22.10;99.90
57390;DHT22;43217;52.694;6.214;2023-07-29T10:44:52;22.10;99.90
57390;DHT22;43217;52.694;6.214;2023-07-29T10:49:57;22.50;99.90
57390;DHT22;43217;52.694;6.214;2023-07-29T10:55:01;22.90;99.90
57390;DHT22;43217;52.694;6.214;2023-07-29T10:57:32;22.90;99.90
57390;DHT22;43217;52.694;6.214;2023-07-29T10:59:59;22.80;99.90
57390;DHT22;43217;52.694;6.214;2023-07-29T11:02:30;22.60;99.90
57390;DHT22;43217;52.694;6.214;2023-07-29T11:04:56;22.50;99.90
57390;DHT22;43217;52.694;6.214;2023-07-29T11:07:23;22.50;99.90
57390;DHT22;43217;52.694;6.214;2023-07-29T11:09:55;22.40;99.90
57390;DHT22;43217;52.694;6.214;2023-07-29T11:17:40;22.40;99.90
57390;DHT22;43217;52.694;6.214;2023-07-29T11:20:07;22.40;99.90
57390;DHT22;43217;52.694;6.214;2023-07-29T11:22:33;22.40;99.90
57390;DHT22;43217;52.694;6.214;2023-07-29T11:24:59;22.50;99.90
57390;DHT22;43217;52.694;6.214;2023-07-29T11:27:25;22.70;99.90
57390;DHT22;43217;52.694;6.214;2023-07-29T11:29:57;22.90;99.90
57390;DHT22;43217;52.694;6.214;2023-07-29T11:32:22;23.10;99.90
57390;DHT22;43217;52.694;6.214;2023-07-29T11:34:48;23.30;99.90
57390;DHT22;43217;52.694;6.214;2023-07-29T11:37:14;23.40;99.90
57390;DHT22;43217;52.694;6.214;2023-07-29T11:39:43;23.50;99.90
57390;DHT22;43217;52.694;6.214;2023-07-29T11:42:15;23.60;99.90
57390;DHT22;43217;52.694;6.214;2023-07-29T11:44:42;23.60;99.90
57390;DHT22;43217;52.694;6.214;2023-07-29T11:47:12;23.70;99.90
57390;DHT22;43217;52.694;6.214;2023-07-29T11:49:41;24.00;99.90
57390;DHT22;43217;52.694;6.214;2023-07-29T11:52:08;24.30;99.90
57390;DHT22;43217;52.694;6.214;2023-07-29T11:54:38;24.50;99.90
57390;DHT22;43217;52.694;6.214;2023-07-29T11:57:07;24.40;99.90
57390;DHT22;43217;52.694;6.214;2023-07-29T11:59:35;24.40;99.90
57390;DHT22;43217;52.694;6.214;2023-07-29T12:02:05;24.40;99.90
57390;DHT22;43217;52.694;6.214;2023-07-29T12:04:31;24.30;99.90
57390;DHT22;43217;52.694;6.214;2023-07-29T12:06:57;24.30;99.90
57390;DHT22;43217;52.694;6.214;2023-07-29T12:09:24;24.30;99.90
57390;DHT22;43217;52.694;6.214;2023-07-29T12:11:50;24.30;99.90
57390;DHT22;43217;52.694;6.214;2023-07-29T12:14:16;24.40;99.90
57390;DHT22;43217;52.694;6.214;2023-07-29T12:16:48;24.50;99.90
57390;DHT22;43217;52.694;6.214;2023-07-29T12:19:14;24.60;99.90
57390;DHT22;43217;52.694;6.214;2023-07-29T12:21:44;24.60;99.90
57390;DHT22;43217;52.694;6.214;2023-07-29T12:24:14;24.70;99.90
57390;DHT22;43217;52.694;6.214;2023-07-29T12:26:41;24.70;99.90
57390;DHT22;43217;52.694;6.214;2023-07-29T12:29:17;24.60;99.90
57390;DHT22;43217;52.694;6.214;2023-07-29T12:31:45;24.40;99.90
57390;DHT22;43217;52.694;6.214;2023-07-29T12:34:21;24.30;99.90
57390;DHT22;43217;52.694;6.214;2023-07-29T12:36:49;24.10;99.90
57390;DHT22;43217;52.694;6.214;2023-07-29T12:39:25;23.90;99.90
57390;DHT22;43217;52.694;6.214;2023-07-29T12:41:53;23.90;99.90
57390;DHT22;43217;52.694;6.214;2023-07-29T12:44:19;23.80;99.90
57390;DHT22;43217;52.694;6.214;2023-07-29T12:46:45;23.70;99.90
57390;DHT22;43217;52.694;6.214;2023-07-29T12:49:11;23.60;99.90
57390;DHT22;43217;52.694;6.214;2023-07-29T12:51:37;23.50;99.90
57390;DHT22;43217;52.694;6.214;2023-07-29T12:54:06;23.40;99.90
57390;DHT22;43217;52.694;6.214;2023-07-29T12:56:33;23.30;99.90
57390;DHT22;43217;52.694;6.214;2023-07-29T12:59:00;23.30;99.90
57390;DHT22;43217;52.694;6.214;2023-07-29T13:01:26;23.10;99.90
57390;DHT22;43217;52.694;6.214;2023-07-29T13:03:52;23.00;99.90
57390;DHT22;43217;52.694;6.214;2023-07-29T13:06:18;22.90;99.90
57390;DHT22;43217;52.694;6.214;2023-07-29T13:08:44;22.90;99.90
57390;DHT22;43217;52.694;6.214;2023-07-29T13:11:10;22.80;99.90
57390;DHT22;43217;52.694;6.214;2023-07-29T13:13:35;22.60;99.90
57390;DHT22;43217;52.694;6.214;2023-07-29T13:16:01;22.50;99.90
57390;DHT22;43217;52.694;6.214;2023-07-29T13:18:27;22.40;99.90
57390;DHT22;43217;52.694;6.214;2023-07-29T13:20:53;22.20;99.90
57390;DHT22;43217;52.694;6.214;2023-07-29T13:23:19;21.90;99.90
57390;DHT22;43217;52.694;6.214;2023-07-29T13:25:45;21.70;99.90
57390;DHT22;43217;52.694;6.214;2023-07-29T13:28:11;21.60;99.90
57390;DHT22;43217;52.694;6.214;2023-07-29T13:30:39;21.60;99.90
57390;DHT22;43217;52.694;6.214;2023-07-29T13:33:05;21.60;99.90
57390;DHT22;43217;52.694;6.214;2023-07-29T13:35:31;21.50;99.90
57390;DHT22;43217;52.694;6.214;2023-07-29T13:37:57;21.40;99.90
57390;DHT22;43217;52.694;6.214;2023-07-29T13:40:22;21.20;99.90
57390;DHT22;43217;52.694;6.214;2023-07-29T13:42:48;21.10;99.90
57390;DHT22;43217;52.694;6.214;2023-07-29T13:45:14;21.20;99.90
57390;DHT22;43217;52.694;6.214;2023-07-29T13:47:39;21.40;99.90
57390;DHT22;43217;52.694;6.214;2023-07-29T13:50:06;21.50;99.90
57390;DHT22;43217;52.694;6.214;2023-07-29T13:52:33;21.70;99.90
57390;DHT22;43217;52.694;6.214;2023-07-29T13:54:59;21.80;99.90
57390;DHT22;43217;52.694;6.214;2023-07-29T13:57:25;21.80;99.90
57390;DHT22;43217;52.694;6.214;2023-07-29T13:59:51;21.90;99.90
57390;DHT22;43217;52.694;6.214;2023-07-29T14:02:16;21.90;99.90
57390;DHT22;43217;52.694;6.214;2023-07-29T14:04:42;21.90;99.90
57390;DHT22;43217;52.694;6.214;2023-07-29T14:07:08;21.90;99.90
57390;DHT22;43217;52.694;6.214;2023-07-29T14:09:33;22.00;99.90
57390;DHT22;43217;52.694;6.214;2023-07-29T14:11:59;22.10;99.90
57390;DHT22;43217;52.694;6.214;2023-07-29T14:14:24;22.10;99.90
57390;DHT22;43217;52.694;6.214;2023-07-29T14:16:50;22.10;99.90
57390;DHT22;43217;52.694;6.214;2023-07-29T14:19:16;22.20;99.90
57390;DHT22;43217;52.694;6.214;2023-07-29T14:21:41;22.20;99.90
57390;DHT22;43217;52.694;6.214;2023-07-29T14:24:07;22.20;99.90
57390;DHT22;43217;52.694;6.214;2023-07-29T14:26:33;22.20;99.90
57390;DHT22;43217;52.694;6.214;2023-07-29T14:28:58;22.30;99.90
57390;DHT22;43217;52.694;6.214;2023-07-29T14:31:24;22.30;99.90
57390;DHT22;43217;52.694;6.214;2023-07-29T14:33:49;22.30;99.90
57390;DHT22;43217;52.694;6.214;2023-07-29T14:36:16;22.40;99.90
57390;DHT22;43217;52.694;6.214;2023-07-29T14:38:41;22.50;99.90
57390;DHT22;43217;52.694;6.214;2023-07-29T14:41:08;22.50;99.90
57390;DHT22;43217;52.694;6.214;2023-07-29T14:43:34;22.50;99.90
57390;DHT22;43217;52.694;6.214;2023-07-29T14:46:00;22.50;99.90
57390;DHT22;43217;52.694;6.214;2023-07-29T14:48:26;22.50;99.90
57390;DHT22;43217;52.694;6.214;2023-07-29T14:50:52;22.50;99.90
57390;DHT22;43217;52.694;6.214;2023-07-29T14:53:18;22.50;99.90
57390;DHT22;43217;52.694;6.214;2023-07-29T14:55:44;22.60;99.90
57390;DHT22;43217;52.694;6.214;2023-07-29T14:58:09;22.60;99.90
57390;DHT22;43217;52.694;6.214;2023-07-29T15:00:35;22.60;99.90
57390;DHT22;43217;52.694;6.214;2023-07-29T15:03:00;22.60;99.90
57390;DHT22;43217;52.694;6.214;2023-07-29T15:05:26;22.60;99.90
57390;DHT22;43217;52.694;6.214;2023-07-29T15:07:52;22.80;99.90
57390;DHT22;43217;52.694;6.214;2023-07-29T15:10:17;22.90;99.90
57390;DHT22;43217;52.694;6.214;2023-07-29T15:12:44;22.90;99.90
57390;DHT22;43217;52.694;6.214;2023-07-29T15:15:11;23.00;99.90
57390;DHT22;43217;52.694;6.214;2023-07-29T15:17:37;23.00;99.90
57390;DHT22;43217;52.694;6.214;2023-07-29T15:20:03;22.90;99.90
57390;DHT22;43217;52.694;6.214;2023-07-29T15:22:30;23.00;99.90
57390;DHT22;43217;52.694;6.214;2023-07-29T15:25:00;22.90;99.90
57390;DHT22;43217;52.694;6.214;2023-07-29T15:27:27;23.00;99.90
57390;DHT22;43217;52.694;6.214;2023-07-29T15:29:52;22.90;99.90
57390;DHT22;43217;52.694;6.214;2023-07-29T15:32:18;22.90;99.90
57390;DHT22;43217;52.694;6.214;2023-07-29T15:34:44;22.90;99.90
57390;DHT22;43217;52.694;6.214;2023-07-29T15:37:09;22.80;99.90
57390;DHT22;43217;52.694;6.214;2023-07-29T15:39:35;22.80;99.90
57390;DHT22;43217;52.694;6.214;2023-07-29T15:42:00;22.80;99.90
57390;DHT22;43217;52.694;6.214;2023-07-29T15:44:26;22.70;99.90